createdAt,value
2022-09-09T00:00:23.477Z,82.57
2022-09-09T00:04:33.975Z,82.69
2022-09-09T00:08:52.760Z,83.24
2022-09-09T00:13:20.417Z,83.66
2022-09-09T00:17:48.848Z,83.76
2022-09-09T00:22:05.774Z,83.79
2022-09-09T00:26:23.121Z,83.61
2022-09-09T00:30:27.620Z,83.20
2022-09-09T00:34:30.366Z,83.29
2022-09-09T00:38:37.957Z,83.11
2022-09-09T00:42:44.405Z,82.50
2022-09-09T00:47:00.856Z,82.35
2022-09-09T00:51:16.331Z,81.35
2022-09-09T00:55:57.392Z,81.95
2022-09-09T01:00:05.164Z,81.38
2022-09-09T01:04:17.353Z,81.04
2022-09-09T01:08:50.131Z,80.78
2022-09-09T01:12:54.949Z,80.42
2022-09-09T01:17:00.917Z,80.79
2022-09-09T01:21:26.995Z,80.59
2022-09-09T01:25:50.956Z,81.02
2022-09-09T01:29:58.563Z,81.62
2022-09-09T01:34:00.654Z,81.51
2022-09-09T01:38:02.589Z,82.31
2022-09-09T01:42:07.475Z,82.54
2022-09-09T01:46:10.710Z,83.67
2022-09-09T01:50:15.926Z,84.54
2022-09-09T01:54:19.052Z,85.43
2022-09-09T01:58:35.384Z,87.06
2022-09-09T02:02:45.216Z,87.05
2022-09-09T02:06:56.739Z,88.03
2022-09-09T02:11:12.783Z,87.16
2022-09-09T02:15:31.541Z,87.78
2022-09-09T02:19:37.423Z,87.56
2022-09-09T02:23:49.843Z,88.32
2022-09-09T02:27:52.648Z,87.68
2022-09-09T02:31:59.248Z,87.87
2022-09-09T02:36:07.770Z,87.50
2022-09-09T02:40:12.135Z,88.03
2022-09-09T02:44:19.680Z,87.73
2022-09-09T02:48:35.596Z,87.90
2022-09-09T02:52:59.874Z,88.13
2022-09-09T02:57:06.991Z,87.96
2022-09-09T03:01:13.173Z,87.97
2022-09-09T03:05:15.155Z,87.69
2022-09-09T03:09:17.192Z,88.95
2022-09-09T03:13:20.290Z,89.31
2022-09-09T03:17:22.124Z,89.26
2022-09-09T03:21:28.109Z,89.83
2022-09-09T03:25:30.996Z,89.70
2022-09-09T03:29:32.712Z,90.08
2022-09-09T03:33:42.157Z,89.83
2022-09-09T03:37:46.235Z,89.98
2022-09-09T03:41:49.507Z,90.75
2022-09-09T03:45:51.823Z,91.13
2022-09-09T03:49:53.489Z,91.79
2022-09-09T03:53:56.556Z,91.83
2022-09-09T03:57:58.284Z,92.07
2022-09-09T04:02:00.307Z,93.70
2022-09-09T04:06:04.551Z,93.76
2022-09-09T04:10:09.442Z,93.54
2022-09-09T04:14:13.846Z,94.10
2022-09-09T04:18:19.831Z,94.56
2022-09-09T04:22:23.371Z,94.02
2022-09-09T04:26:25.576Z,93.92
2022-09-09T04:30:28.621Z,93.47
2022-09-09T04:34:31.531Z,93.57
2022-09-09T04:38:33.192Z,94.49
2022-09-09T04:42:37.109Z,95.06
2022-09-09T04:46:38.992Z,95.50
2022-09-09T04:50:41.671Z,95.48
2022-09-09T04:54:46.800Z,96.52
2022-09-09T04:58:49.048Z,97.13
2022-09-09T05:02:52.139Z,98.29
2022-09-09T05:06:53.710Z,97.61
2022-09-09T05:10:56.299Z,96.94
2022-09-09T05:14:57.994Z,96.26
2022-09-09T05:19:00.168Z,95.84
2022-09-09T05:23:09.213Z,95.33
2022-09-09T05:27:13.218Z,95.03
2022-09-09T05:31:17.687Z,95.26
2022-09-09T05:35:22.181Z,95.06
2022-09-09T05:39:24.495Z,94.73
2022-09-09T05:43:28.197Z,94.64
2022-09-09T05:47:30.916Z,96.01
2022-09-09T05:51:33.516Z,95.80
2022-09-09T05:55:41.600Z,95.63
2022-09-09T05:59:43.513Z,95.35
2022-09-09T06:03:46.672Z,94.77
2022-09-09T06:07:48.366Z,94.36
2022-09-09T06:11:50.046Z,93.87
2022-09-09T06:15:53.174Z,93.55
2022-09-09T06:19:54.988Z,92.36
2022-09-09T06:24:00.889Z,91.46
2022-09-09T06:28:03.396Z,90.56
2022-09-09T06:32:05.888Z,89.51
2022-09-09T06:36:16.345Z,89.64
2022-09-09T06:40:19.099Z,89.12
2022-09-09T06:44:21.187Z,89.09
2022-09-09T06:48:22.946Z,88.30
2022-09-09T06:52:25.921Z,88.70
2022-09-09T06:56:35.002Z,88.17
2022-09-09T07:00:42.435Z,87.24
2022-09-09T07:04:45.375Z,86.45
2022-09-09T07:08:56.783Z,87.06
2022-09-09T07:13:02.682Z,87.08
2022-09-09T07:17:04.513Z,86.59
2022-09-09T07:21:15.781Z,86.71
2022-09-09T07:25:19.045Z,86.64
2022-09-09T07:29:21.536Z,85.97
2022-09-09T07:33:26.714Z,86.20
2022-09-09T07:37:28.457Z,85.44
2022-09-09T07:41:35.217Z,85.63
2022-09-09T07:45:36.936Z,85.29
2022-09-09T07:49:38.698Z,84.50
2022-09-09T07:53:42.352Z,82.67
2022-09-09T07:57:44.266Z,81.95
2022-09-09T08:01:49.407Z,81.41
2022-09-09T08:05:54.299Z,80.14
2022-09-09T08:09:56.749Z,79.75
2022-09-09T08:14:03.937Z,79.17
2022-09-09T08:18:06.722Z,78.78
2022-09-09T08:22:09.568Z,78.68
2022-09-09T08:26:24.313Z,77.07
2022-09-09T08:30:26.112Z,75.45
2022-09-09T08:34:29.115Z,74.18
2022-09-09T08:38:35.385Z,74.43
2022-09-09T08:42:47.976Z,73.63
2022-09-09T08:47:30.620Z,74.36
2022-09-09T08:51:35.725Z,74.10
2022-09-09T08:55:54.129Z,73.47
2022-09-09T09:00:01.838Z,71.92
2022-09-09T09:04:16.002Z,69.48
2022-09-09T09:08:39.220Z,66.53
2022-09-09T09:12:44.156Z,66.27
2022-09-09T09:17:07.519Z,65.82
2022-09-09T09:21:24.707Z,64.64
2022-09-09T09:25:36.613Z,62.42
2022-09-09T09:30:03.150Z,62.02
2022-09-09T09:34:04.312Z,63.89
2022-09-09T09:42:59.211Z,65.23
2022-09-09T09:47:14.436Z,66.32
2022-09-09T09:51:23.514Z,67.63
2022-09-09T09:55:27.092Z,64.06
2022-09-09T09:59:43.835Z,64.48
2022-09-09T10:04:03.189Z,64.50
2022-09-09T10:08:10.217Z,59.04
2022-09-09T10:12:29.838Z,58.96
2022-09-09T10:16:59.789Z,58.44
2022-09-09T10:21:19.606Z,60.33
2022-09-09T10:25:36.734Z,60.12
2022-09-09T10:30:17.566Z,60.22
2022-09-09T10:34:46.287Z,62.82
2022-09-09T10:38:53.496Z,68.32
2022-09-09T10:43:20.699Z,76.79
2022-09-09T10:47:56.276Z,80.69
2022-09-09T10:52:19.116Z,83.47
2022-09-09T10:56:25.008Z,88.69
2022-09-09T11:00:39.782Z,97.18
2022-09-09T11:04:46.374Z,100.00
2022-09-09T11:08:53.789Z,100.00
2022-09-09T11:13:05.033Z,100.00
2022-09-09T11:17:28.050Z,100.00
2022-09-09T11:21:38.720Z,100.00
2022-09-09T11:25:46.684Z,100.00
2022-09-09T11:30:07.742Z,100.00
2022-09-09T11:34:43.317Z,100.00
2022-09-09T11:38:52.446Z,100.00
2022-09-09T11:43:04.315Z,100.00
2022-09-09T11:47:43.711Z,100.00
2022-09-09T11:51:48.552Z,100.00
2022-09-09T11:56:06.750Z,100.00
2022-09-09T12:00:48.752Z,100.00
2022-09-09T12:05:16.090Z,100.00
2022-09-09T12:09:27.969Z,100.00
2022-09-09T12:13:29.709Z,100.00
2022-09-09T12:17:34.439Z,98.23
2022-09-09T12:21:45.791Z,97.04
2022-09-09T12:26:02.756Z,89.02
2022-09-09T12:30:11.811Z,89.29
2022-09-09T12:34:21.525Z,88.19
2022-09-09T12:38:40.702Z,84.96
2022-09-09T12:42:42.265Z,81.53
2022-09-09T12:46:47.719Z,81.01
2022-09-09T12:50:52.510Z,78.71
2022-09-09T12:54:54.818Z,78.52
2022-09-09T12:58:59.264Z,76.93
2022-09-09T13:03:03.813Z,74.19
2022-09-09T13:07:10.885Z,72.27
2022-09-09T13:11:19.461Z,73.40
2022-09-09T13:15:25.329Z,71.51
2022-09-09T13:19:29.973Z,70.90
2022-09-09T13:23:36.215Z,70.17
2022-09-09T13:27:40.863Z,70.61
2022-09-09T13:31:42.710Z,71.44
2022-09-09T13:35:50.700Z,72.64
2022-09-09T13:39:54.657Z,73.69
2022-09-09T13:43:56.495Z,74.20
2022-09-09T13:47:58.144Z,76.02
2022-09-09T13:52:17.864Z,76.82
2022-09-09T13:56:19.666Z,77.12
2022-09-09T14:00:22.174Z,79.19
2022-09-09T14:04:23.950Z,79.90
2022-09-09T14:08:28.373Z,81.82
2022-09-09T14:12:31.285Z,81.82
2022-09-09T14:16:32.974Z,80.98
2022-09-09T14:20:34.537Z,79.20
2022-09-09T14:24:36.529Z,76.53
2022-09-09T14:28:57.174Z,75.38
2022-09-09T14:32:59.112Z,74.88
2022-09-09T14:37:00.653Z,73.25
2022-09-09T14:41:04.244Z,72.86
2022-09-09T14:45:06.488Z,71.50
2022-09-09T14:49:08.444Z,70.72
2022-09-09T14:53:11.053Z,70.46
2022-09-09T14:57:12.597Z,68.83
2022-09-09T15:01:16.744Z,68.19
2022-09-09T15:05:18.468Z,68.67
2022-09-09T15:09:20.020Z,67.69
2022-09-09T15:13:21.752Z,68.92
2022-09-09T15:17:28.168Z,69.20
2022-09-09T15:21:34.393Z,69.79
2022-09-09T15:25:36.021Z,70.28
2022-09-09T15:29:40.412Z,70.12
2022-09-09T15:33:42.579Z,70.65
2022-09-09T15:37:44.136Z,72.56
2022-09-09T15:41:47.879Z,72.33
2022-09-09T15:45:57.800Z,72.52
2022-09-09T15:49:59.448Z,71.49
2022-09-09T15:54:01.257Z,70.32
2022-09-09T15:58:02.899Z,70.42
2022-09-09T16:02:06.252Z,69.60
2022-09-09T16:06:08.119Z,70.10
2022-09-09T16:10:10.522Z,71.07
2022-09-09T16:14:12.139Z,69.80
2022-09-09T16:18:13.750Z,67.61
2022-09-09T16:22:16.388Z,66.14
2022-09-09T16:26:19.349Z,66.01
2022-09-09T16:30:20.941Z,68.13
2022-09-09T16:34:23.399Z,68.86
2022-09-09T16:38:25.337Z,70.17
2022-09-09T16:42:27.404Z,70.70
2022-09-09T16:46:30.089Z,72.02
2022-09-09T16:50:31.947Z,73.15
2022-09-09T16:54:33.475Z,73.38
2022-09-09T16:58:35.435Z,73.92
2022-09-09T17:02:37.108Z,74.06
2022-09-09T17:06:39.196Z,74.96
2022-09-09T17:10:44.591Z,76.22
2022-09-09T17:14:46.664Z,77.45
2022-09-09T17:18:52.270Z,78.38
2022-09-09T17:22:53.837Z,78.59
2022-09-09T17:26:56.270Z,79.89
2022-09-09T17:31:02.338Z,80.96
2022-09-09T17:35:06.817Z,81.87
2022-09-09T17:39:09.099Z,86.07
2022-09-09T17:43:10.675Z,88.34
2022-09-09T17:47:12.218Z,88.76
2022-09-09T17:51:19.906Z,88.71
2022-09-09T17:55:22.444Z,90.98
2022-09-09T17:59:25.655Z,92.07
2022-09-09T18:03:27.218Z,91.79
2022-09-09T18:07:28.759Z,92.49
2022-09-09T18:11:33.097Z,93.89
2022-09-09T18:15:49.202Z,94.01
2022-09-09T18:19:51.883Z,95.03
2022-09-09T18:23:53.849Z,96.43
2022-09-09T18:27:55.567Z,100.00
2022-09-09T18:31:57.464Z,100.00
2022-09-09T18:36:05.085Z,100.00
2022-09-09T18:40:07.053Z,100.00
2022-09-09T18:44:13.651Z,100.00
2022-09-09T18:48:15.188Z,100.00
2022-09-09T18:52:16.832Z,100.00
2022-09-09T18:56:18.409Z,100.00
2022-09-09T19:00:20.792Z,100.00
2022-09-09T19:04:24.008Z,100.00
2022-09-09T19:08:25.521Z,100.00
2022-09-09T19:12:27.389Z,100.00
2022-09-09T19:16:31.516Z,100.00
2022-09-09T19:20:33.156Z,100.00
2022-09-09T19:24:34.854Z,100.00
2022-09-09T19:28:36.832Z,100.00
2022-09-09T19:32:52.693Z,100.00
2022-09-09T19:36:55.091Z,100.00
2022-09-09T19:40:56.967Z,100.00
2022-09-09T19:44:58.545Z,100.00
2022-09-09T19:49:01.479Z,100.00
2022-09-09T19:53:04.032Z,100.00
2022-09-09T19:57:05.825Z,100.00
2022-09-09T20:01:15.378Z,100.00
2022-09-09T20:05:16.967Z,100.00
2022-09-09T20:09:19.552Z,100.00
2022-09-09T20:13:21.249Z,100.00
2022-09-09T20:17:24.395Z,100.00
2022-09-09T20:21:31.986Z,100.00
2022-09-09T20:25:36.208Z,100.00
2022-09-09T20:29:37.823Z,100.00
2022-09-09T20:33:41.211Z,100.00
2022-09-09T20:37:42.880Z,100.00
2022-09-09T20:41:46.032Z,100.00
2022-09-09T20:45:47.632Z,100.00
2022-09-09T20:49:49.234Z,100.00
2022-09-09T20:53:59.562Z,100.00
2022-09-09T20:58:01.328Z,100.00
2022-09-09T21:02:03.456Z,100.00
2022-09-09T21:06:06.951Z,100.00
2022-09-09T21:10:08.794Z,100.00
2022-09-09T21:14:10.817Z,100.00
2022-09-09T21:18:12.362Z,100.00
2022-09-09T21:22:14.359Z,100.00
2022-09-09T21:26:17.893Z,100.00
2022-09-09T21:30:19.455Z,100.00
2022-09-09T21:34:21.780Z,100.00
2022-09-09T21:38:24.771Z,100.00
2022-09-09T21:42:26.461Z,100.00
2022-09-09T21:46:28.334Z,100.00
2022-09-09T21:50:30.802Z,100.00
2022-09-09T21:54:32.366Z,100.00
2022-09-09T21:58:35.445Z,100.00
2022-09-09T22:02:37.299Z,100.00
2022-09-09T22:06:38.929Z,100.00
2022-09-09T22:10:42.783Z,100.00
2022-09-09T22:14:44.340Z,100.00
2022-09-09T22:18:51.237Z,100.00
2022-09-09T22:22:52.748Z,100.00
2022-09-09T22:26:55.639Z,100.00
2022-09-09T22:30:57.663Z,100.00
2022-09-09T22:34:59.198Z,100.00
2022-09-09T22:39:01.963Z,100.00
2022-09-09T22:43:05.332Z,100.00
2022-09-09T22:47:06.967Z,100.00
2022-09-09T22:51:12.196Z,100.00
2022-09-09T22:55:13.913Z,100.00
2022-09-09T22:59:16.006Z,100.00
2022-09-09T23:03:18.006Z,100.00
2022-09-09T23:07:20.593Z,100.00
2022-09-09T23:11:23.717Z,100.00
2022-09-09T23:15:25.567Z,100.00
2022-09-09T23:19:28.789Z,100.00
2022-09-09T23:23:30.331Z,100.00
2022-09-09T23:27:32.946Z,100.00
2022-09-09T23:31:38.576Z,100.00
2022-09-09T23:35:40.708Z,100.00
2022-09-09T23:39:42.838Z,100.00
2022-09-09T23:43:45.040Z,100.00
2022-09-09T23:47:46.819Z,100.00
2022-09-09T23:51:49.640Z,100.00
2022-09-09T23:55:51.164Z,100.00
2022-09-09T23:59:52.764Z,100.00
